createdAt,value
2019-05-17T00:00:27.391Z,80.23
2019-05-17T00:02:57.026Z,80.51
2019-05-17T00:05:26.368Z,80.11
2019-05-17T00:07:53.401Z,79.46
2019-05-17T00:10:20.749Z,80.28
2019-05-17T00:12:48.105Z,80.67
2019-05-17T00:15:16.968Z,79.96
2019-05-17T00:17:46.675Z,80.36
2019-05-17T00:20:13.939Z,80.73
2019-05-17T00:22:41.271Z,80.83
2019-05-17T00:25:08.784Z,80.75
2019-05-17T00:27:36.694Z,80.98
2019-05-17T00:30:06.584Z,79.98
2019-05-17T00:32:34.036Z,80.19
2019-05-17T00:35:01.422Z,80.22
2019-05-17T00:37:28.733Z,80.46
2019-05-17T00:39:56.705Z,81.12
2019-05-17T00:42:26.291Z,80.49
2019-05-17T00:44:53.485Z,80.39
2019-05-17T00:47:20.772Z,81.31
2019-05-17T00:49:48.105Z,80.95
2019-05-17T00:52:16.708Z,82.02
2019-05-17T00:54:44.320Z,82.02
2019-05-17T00:57:11.681Z,82.02
2019-05-17T00:59:38.975Z,82.58
2019-05-17T01:02:06.921Z,82.90
2019-05-17T01:04:36.817Z,82.42
2019-05-17T01:07:04.194Z,80.90
2019-05-17T01:09:31.531Z,81.13
2019-05-17T01:11:58.908Z,81.14
2019-05-17T01:14:26.645Z,81.67
2019-05-17T01:16:56.353Z,81.32
2019-05-17T01:19:23.625Z,82.70
2019-05-17T01:21:50.925Z,81.51
2019-05-17T01:24:18.276Z,82.40
2019-05-17T01:26:46.873Z,82.50
2019-05-17T01:29:14.425Z,81.64
2019-05-17T01:31:41.716Z,82.04
2019-05-17T01:34:09.113Z,82.70
2019-05-17T01:36:37.057Z,82.57
2019-05-17T01:39:17.007Z,82.62
2019-05-17T01:41:34.292Z,83.30
2019-05-17T01:44:01.595Z,83.69
2019-05-17T01:46:28.924Z,84.20
2019-05-17T01:48:57.717Z,83.63
2019-05-17T01:51:26.363Z,83.84
2019-05-17T01:53:53.829Z,83.62
2019-05-17T01:56:21.188Z,83.09
2019-05-17T01:58:48.485Z,82.98
2019-05-17T02:01:16.998Z,83.06
2019-05-17T02:03:46.774Z,84.54
2019-05-17T02:06:13.773Z,82.38
2019-05-17T02:08:41.086Z,82.31
2019-05-17T02:11:08.420Z,83.06
2019-05-17T02:13:37.528Z,82.98
2019-05-17T02:16:07.098Z,83.95
2019-05-17T02:18:34.205Z,83.63
2019-05-17T02:21:01.510Z,84.46
2019-05-17T02:23:28.805Z,82.84
2019-05-17T02:25:57.107Z,84.34
2019-05-17T02:28:24.621Z,82.58
2019-05-17T02:30:53.043Z,81.56
2019-05-17T02:33:23.601Z,81.50
2019-05-17T02:35:53.401Z,84.30
2019-05-17T02:38:22.257Z,83.31
2019-05-17T02:40:48.375Z,82.52
2019-05-17T02:43:15.747Z,83.14
2019-05-17T02:45:43.653Z,84.11
2019-05-17T02:48:13.383Z,84.61
2019-05-17T02:50:43.029Z,84.14
2019-05-17T02:53:09.564Z,83.61
2019-05-17T02:55:36.945Z,82.13
2019-05-17T02:58:04.377Z,82.06
2019-05-17T03:00:34.070Z,83.50
2019-05-17T03:03:03.420Z,84.72
2019-05-17T03:05:33.423Z,84.43
2019-05-17T03:07:59.407Z,84.43
2019-05-17T03:10:29.001Z,86.31
2019-05-17T03:12:56.026Z,85.96
2019-05-17T03:15:23.647Z,86.13
2019-05-17T03:17:53.763Z,84.57
2019-05-17T03:20:23.125Z,83.87
2019-05-17T03:22:52.405Z,83.39
2019-05-17T03:25:19.009Z,82.84
2019-05-17T03:27:46.307Z,82.41
2019-05-17T03:30:18.207Z,82.70
2019-05-17T03:32:47.217Z,83.98
2019-05-17T03:35:16.820Z,83.25
2019-05-17T03:37:43.817Z,84.89
2019-05-17T03:40:27.330Z,82.57
2019-05-17T03:42:42.845Z,83.86
2019-05-17T03:45:09.563Z,85.87
2019-05-17T03:47:36.910Z,86.28
2019-05-17T03:50:04.361Z,86.58
2019-05-17T03:52:33.282Z,85.14
2019-05-17T03:55:03.987Z,84.46
2019-05-17T03:57:32.343Z,84.81
2019-05-17T04:00:03.510Z,84.81
2019-05-17T04:02:28.669Z,85.55
2019-05-17T04:04:55.964Z,85.55
2019-05-17T04:07:23.785Z,87.27
2019-05-17T04:09:53.243Z,86.27
2019-05-17T04:12:23.125Z,85.82
2019-05-17T04:14:53.049Z,84.97
2019-05-17T04:17:22.566Z,84.94
2019-05-17T04:19:48.279Z,82.58
2019-05-17T04:22:15.688Z,84.21
2019-05-17T04:24:43.950Z,86.27
2019-05-17T04:27:13.565Z,86.27
2019-05-17T04:29:42.545Z,84.15
2019-05-17T04:32:12.857Z,83.76
2019-05-17T04:34:39.230Z,86.29
2019-05-17T04:37:06.547Z,86.01
2019-05-17T04:39:33.912Z,83.14
2019-05-17T04:42:03.814Z,85.88
2019-05-17T04:44:32.265Z,86.66
2019-05-17T04:47:02.774Z,85.90
2019-05-17T04:49:28.958Z,86.00
2019-05-17T04:51:56.289Z,84.54
2019-05-17T04:54:23.623Z,84.98
2019-05-17T04:56:53.275Z,85.06
2019-05-17T04:59:24.016Z,84.58
2019-05-17T05:01:49.446Z,83.43
2019-05-17T05:04:16.779Z,84.31
2019-05-17T05:06:44.070Z,83.69
2019-05-17T05:09:12.707Z,83.28
2019-05-17T05:11:53.509Z,84.15
2019-05-17T05:14:12.563Z,84.50
2019-05-17T05:16:38.934Z,83.38
2019-05-17T05:19:06.241Z,82.94
2019-05-17T05:21:33.547Z,82.54
2019-05-17T05:24:02.980Z,82.30
2019-05-17T05:26:31.759Z,83.42
2019-05-17T05:29:01.929Z,83.06
2019-05-17T05:31:28.605Z,82.81
2019-05-17T05:33:55.925Z,82.76
2019-05-17T05:36:23.280Z,83.94
2019-05-17T05:38:51.541Z,83.08
2019-05-17T05:41:19.065Z,83.37
2019-05-17T05:43:46.428Z,83.03
2019-05-17T05:46:13.808Z,82.46
2019-05-17T05:48:41.567Z,82.17
2019-05-17T05:51:09.400Z,83.17
2019-05-17T05:53:36.732Z,82.60
2019-05-17T05:56:04.040Z,80.94
2019-05-17T05:58:32.178Z,81.23
2019-05-17T06:01:02.214Z,83.65
2019-05-17T06:03:29.036Z,82.40
2019-05-17T06:05:56.321Z,83.41
2019-05-17T06:08:23.653Z,82.92
2019-05-17T06:10:53.096Z,82.53
2019-05-17T06:13:21.847Z,81.49
2019-05-17T06:15:51.623Z,81.17
2019-05-17T06:18:18.685Z,81.30
2019-05-17T06:20:45.996Z,80.61
2019-05-17T06:23:13.748Z,81.47
2019-05-17T06:25:43.553Z,79.77
2019-05-17T06:28:11.479Z,79.65
2019-05-17T06:30:39.074Z,79.05
2019-05-17T06:33:06.336Z,79.84
2019-05-17T06:35:33.766Z,79.87
2019-05-17T06:38:01.906Z,78.84
2019-05-17T06:40:29.492Z,78.77
2019-05-17T06:42:56.827Z,78.70
2019-05-17T06:45:24.205Z,77.27
2019-05-17T06:47:51.895Z,78.04
2019-05-17T06:50:19.315Z,74.88
2019-05-17T06:52:46.828Z,74.08
2019-05-17T06:55:14.227Z,73.08
2019-05-17T06:57:43.214Z,72.64
2019-05-17T07:00:18.186Z,71.84
2019-05-17T07:02:40.311Z,73.00
2019-05-17T07:05:10.515Z,71.88
2019-05-17T07:07:40.392Z,71.09
2019-05-17T07:10:07.149Z,71.39
2019-05-17T07:12:34.471Z,71.36
2019-05-17T07:15:02.166Z,71.67
2019-05-17T07:17:30.419Z,72.11
2019-05-17T07:20:02.752Z,71.17
2019-05-17T07:22:30.099Z,70.22
2019-05-17T07:24:59.556Z,70.54
2019-05-17T07:27:37.848Z,69.25
2019-05-17T07:29:59.112Z,68.36
2019-05-17T07:32:26.309Z,67.44
2019-05-17T07:34:53.585Z,68.01
2019-05-17T07:37:39.538Z,67.21
2019-05-17T07:40:14.185Z,66.06
2019-05-17T07:43:10.455Z,66.20
2019-05-17T07:45:49.842Z,66.14
2019-05-17T07:48:19.781Z,65.78
2019-05-17T07:50:46.424Z,66.27
2019-05-17T07:53:16.225Z,65.22
2019-05-17T07:55:43.536Z,65.40
2019-05-17T07:58:10.970Z,64.99
2019-05-17T08:00:39.899Z,63.82
2019-05-17T08:03:12.156Z,63.24
2019-05-17T08:05:36.767Z,63.83
2019-05-17T08:08:04.153Z,62.68
2019-05-17T08:10:31.897Z,64.27
2019-05-17T08:12:59.928Z,63.43
2019-05-17T08:15:27.388Z,63.54
2019-05-17T08:17:54.764Z,61.99
2019-05-17T08:20:22.310Z,62.09
2019-05-17T08:22:50.184Z,61.94
2019-05-17T08:25:19.895Z,61.85
2019-05-17T08:27:46.926Z,62.10
2019-05-17T08:30:14.345Z,61.51
2019-05-17T08:32:41.700Z,61.22
2019-05-17T08:35:11.394Z,61.02
2019-05-17T08:37:42.478Z,61.83
2019-05-17T08:40:10.725Z,61.57
2019-05-17T08:42:40.701Z,61.73
2019-05-17T08:45:09.736Z,61.46
2019-05-17T08:47:39.374Z,60.32
2019-05-17T08:50:06.494Z,60.41
2019-05-17T08:52:33.828Z,58.53
2019-05-17T08:55:01.186Z,58.03
2019-05-17T08:57:30.239Z,57.18
2019-05-17T09:00:00.505Z,58.35
2019-05-17T09:02:27.026Z,58.24
2019-05-17T09:04:54.387Z,57.44
2019-05-17T09:07:21.725Z,56.54
2019-05-17T09:09:50.159Z,56.32
2019-05-17T09:12:17.705Z,55.83
2019-05-17T09:14:45.044Z,55.75
2019-05-17T09:17:12.413Z,56.73
2019-05-17T09:19:39.754Z,56.63
2019-05-17T09:22:07.607Z,57.31
2019-05-17T09:24:35.006Z,58.75
2019-05-17T09:27:02.329Z,61.56
2019-05-17T09:29:29.753Z,63.27
2019-05-17T09:31:57.079Z,65.78
2019-05-17T09:34:24.437Z,67.51
2019-05-17T09:36:51.750Z,64.34
2019-05-17T09:39:20.066Z,66.41
2019-05-17T09:41:50.173Z,64.64
2019-05-17T09:44:17.016Z,64.04
2019-05-17T09:46:44.399Z,63.14
2019-05-17T09:49:11.740Z,66.22
2019-05-17T09:51:39.614Z,69.76
2019-05-17T09:54:07.168Z,69.21
2019-05-17T09:56:34.581Z,68.30
2019-05-17T09:59:02.075Z,66.91
2019-05-17T10:01:30.399Z,64.96
2019-05-17T10:03:59.846Z,65.22
2019-05-17T10:06:27.211Z,65.80
2019-05-17T10:08:54.627Z,66.53
2019-05-17T10:11:21.948Z,68.59
2019-05-17T10:13:49.936Z,67.16
2019-05-17T10:16:20.049Z,65.44
2019-05-17T10:18:46.866Z,64.83
2019-05-17T10:21:14.161Z,66.17
2019-05-17T10:23:41.554Z,65.44
2019-05-17T10:26:10.299Z,64.19
2019-05-17T10:28:39.838Z,61.75
2019-05-17T10:31:10.732Z,61.91
2019-05-17T10:33:36.228Z,61.30
2019-05-17T10:36:03.527Z,62.00
2019-05-17T10:38:30.900Z,61.43
2019-05-17T10:40:58.266Z,62.37
2019-05-17T10:43:25.516Z,65.12
2019-05-17T10:45:52.870Z,61.48
2019-05-17T10:48:21.236Z,59.72
2019-05-17T10:50:49.683Z,58.46
2019-05-17T10:53:17.167Z,60.81
2019-05-17T10:55:44.467Z,58.17
2019-05-17T10:58:11.799Z,58.02
2019-05-17T11:00:41.379Z,55.98
2019-05-17T11:03:09.816Z,55.52
2019-05-17T11:05:40.229Z,64.02
2019-05-17T11:08:06.968Z,60.34
2019-05-17T11:10:34.280Z,53.55
2019-05-17T11:13:01.669Z,58.46
2019-05-17T11:15:29.096Z,56.73
2019-05-17T11:17:56.412Z,55.83
2019-05-17T11:20:23.820Z,54.17
2019-05-17T11:22:51.233Z,53.46
2019-05-17T11:25:18.546Z,56.39
2019-05-17T11:27:45.993Z,49.52
2019-05-17T11:30:13.514Z,45.54
2019-05-17T11:32:40.891Z,45.24
2019-05-17T11:35:08.200Z,44.00
2019-05-17T11:37:35.629Z,41.85
2019-05-17T11:40:03.305Z,36.30
2019-05-17T11:42:30.640Z,37.42
2019-05-17T11:44:58.172Z,36.82
2019-05-17T11:47:25.532Z,36.15
2019-05-17T11:49:53.019Z,40.94
2019-05-17T11:52:20.475Z,36.47
2019-05-17T11:54:47.849Z,36.27
2019-05-17T11:57:15.222Z,36.04
2019-05-17T11:59:42.619Z,37.82
2019-05-17T12:02:10.125Z,35.69
2019-05-17T12:04:37.468Z,35.62
2019-05-17T12:07:05.169Z,36.48
2019-05-17T12:09:37.270Z,34.63
2019-05-17T12:12:01.811Z,33.34
2019-05-17T12:14:29.185Z,33.74
2019-05-17T12:16:56.703Z,34.73
2019-05-17T12:19:24.189Z,35.57
2019-05-17T12:21:51.671Z,35.47
2019-05-17T12:24:19.225Z,37.56
2019-05-17T12:26:47.573Z,37.44
2019-05-17T12:29:15.187Z,34.76
2019-05-17T12:31:42.456Z,35.84
2019-05-17T12:34:09.854Z,36.64
2019-05-17T12:36:37.219Z,34.74
2019-05-17T12:39:06.296Z,35.36
2019-05-17T12:41:33.602Z,36.76
2019-05-17T12:44:00.987Z,34.81
2019-05-17T12:46:45.000Z,35.02
2019-05-17T12:49:01.978Z,35.96
2019-05-17T12:51:32.791Z,35.02
2019-05-17T12:54:00.688Z,34.32
2019-05-17T12:56:57.163Z,33.16
2019-05-17T12:59:22.122Z,33.35
2019-05-17T13:01:49.529Z,32.32
2019-05-17T13:04:16.883Z,32.44
2019-05-17T13:06:44.272Z,32.61
2019-05-17T13:09:11.600Z,32.63
2019-05-17T13:11:39.011Z,33.33
2019-05-17T13:14:06.323Z,33.95
2019-05-17T13:16:33.700Z,32.68
2019-05-17T13:19:01.080Z,32.16
2019-05-17T13:21:28.495Z,32.42
2019-05-17T13:23:55.835Z,31.65
2019-05-17T13:26:23.365Z,32.63
2019-05-17T13:28:50.648Z,32.59
2019-05-17T13:31:17.939Z,32.87
2019-05-17T13:33:45.324Z,33.89
2019-05-17T13:36:12.656Z,33.57
2019-05-17T13:38:39.952Z,33.19
2019-05-17T13:41:07.315Z,33.97
2019-05-17T13:43:34.640Z,34.32
2019-05-17T13:46:01.930Z,33.50
2019-05-17T13:48:29.251Z,33.60
2019-05-17T13:50:56.639Z,33.90
2019-05-17T13:53:24.010Z,33.12
2019-05-17T13:55:51.369Z,34.63
2019-05-17T13:58:18.727Z,34.25
2019-05-17T14:00:46.142Z,33.50
2019-05-17T14:03:13.502Z,34.26
2019-05-17T14:05:40.806Z,34.96
2019-05-17T14:08:08.254Z,33.85
2019-05-17T14:10:35.607Z,33.49
2019-05-17T14:13:03.000Z,33.92
2019-05-17T14:15:30.290Z,33.04
2019-05-17T14:17:57.625Z,33.85
2019-05-17T14:20:24.981Z,33.81
2019-05-17T14:22:52.308Z,33.00
2019-05-17T14:25:19.753Z,32.51
2019-05-17T14:27:47.126Z,32.97
2019-05-17T14:30:14.749Z,32.93
2019-05-17T14:32:42.106Z,34.54
2019-05-17T14:35:09.994Z,33.89
2019-05-17T14:37:37.590Z,33.98
2019-05-17T14:40:05.501Z,33.66
2019-05-17T14:42:32.845Z,33.75
2019-05-17T14:45:00.207Z,34.09
2019-05-17T14:47:27.589Z,32.99
2019-05-17T14:49:54.926Z,34.90
2019-05-17T14:52:22.401Z,34.52
2019-05-17T14:54:49.845Z,34.23
2019-05-17T14:57:17.259Z,34.79
2019-05-17T14:59:44.562Z,33.49
2019-05-17T15:02:11.983Z,32.80
2019-05-17T15:04:40.329Z,33.09
2019-05-17T15:07:11.182Z,32.45
2019-05-17T15:09:36.945Z,32.64
2019-05-17T15:12:04.489Z,33.66
2019-05-17T15:14:31.802Z,33.84
2019-05-17T15:16:59.161Z,33.92
2019-05-17T15:19:26.500Z,34.71
2019-05-17T15:21:53.828Z,33.67
2019-05-17T15:24:23.451Z,34.03
2019-05-17T15:27:04.701Z,34.07
2019-05-17T15:29:20.008Z,34.85
2019-05-17T15:31:47.450Z,34.25
2019-05-17T15:34:14.747Z,34.18
2019-05-17T15:36:42.086Z,34.31
2019-05-17T15:39:09.497Z,34.59
2019-05-17T15:41:36.951Z,33.96
2019-05-17T15:44:04.264Z,33.96
2019-05-17T15:46:31.620Z,34.76
2019-05-17T15:48:58.973Z,34.90
2019-05-17T15:51:26.333Z,34.96
2019-05-17T15:53:53.733Z,35.75
2019-05-17T15:56:21.253Z,37.13
2019-05-17T15:58:48.557Z,37.28
2019-05-17T16:01:15.993Z,36.92
2019-05-17T16:03:43.384Z,37.81
2019-05-17T16:06:10.816Z,38.38
2019-05-17T16:08:38.185Z,38.76
2019-05-17T16:11:05.750Z,38.57
2019-05-17T16:13:33.972Z,37.63
2019-05-17T16:16:01.503Z,38.43
2019-05-17T16:18:28.847Z,37.61
2019-05-17T16:20:56.209Z,38.95
2019-05-17T16:23:23.586Z,39.15
2019-05-17T16:25:50.952Z,38.14
2019-05-17T16:28:18.369Z,38.65
2019-05-17T16:30:45.741Z,38.86
2019-05-17T16:33:13.074Z,38.66
2019-05-17T16:35:40.425Z,38.83
2019-05-17T16:38:07.808Z,38.36
2019-05-17T16:40:35.144Z,38.61
2019-05-17T16:43:16.734Z,38.33
2019-05-17T16:45:34.324Z,38.80
2019-05-17T16:48:01.719Z,38.21
2019-05-17T16:50:29.102Z,39.16
2019-05-17T16:53:05.665Z,38.78
2019-05-17T16:55:26.218Z,39.17
2019-05-17T16:57:53.933Z,39.18
2019-05-17T17:00:32.089Z,39.50
2019-05-17T17:02:59.590Z,39.44
2019-05-17T17:05:26.938Z,38.09
2019-05-17T17:07:54.320Z,38.53
2019-05-17T17:10:21.720Z,38.26
2019-05-17T17:12:49.015Z,37.82
2019-05-17T17:15:16.368Z,38.24
2019-05-17T17:17:43.711Z,38.11
2019-05-17T17:20:11.129Z,37.73
2019-05-17T17:22:38.602Z,37.12
2019-05-17T17:25:06.330Z,37.71
2019-05-17T17:27:33.720Z,39.00
2019-05-17T17:30:01.160Z,40.04
2019-05-17T17:32:28.510Z,39.41
2019-05-17T17:34:55.879Z,40.91
2019-05-17T17:37:23.316Z,41.64
2019-05-17T17:39:53.310Z,42.13
2019-05-17T17:42:19.945Z,43.09
2019-05-17T17:44:47.430Z,42.78
2019-05-17T17:47:15.732Z,44.26
2019-05-17T17:49:43.174Z,43.27
2019-05-17T17:52:10.560Z,45.51
2019-05-17T17:54:37.890Z,43.55
2019-05-17T17:57:05.314Z,43.78
2019-05-17T17:59:32.815Z,47.40
2019-05-17T18:02:00.118Z,53.21
2019-05-17T18:04:27.566Z,54.02
2019-05-17T18:06:54.963Z,53.69
2019-05-17T18:09:22.402Z,53.87
2019-05-17T18:11:49.809Z,54.86
2019-05-17T18:14:17.250Z,55.28
2019-05-17T18:16:44.728Z,57.16
2019-05-17T18:19:12.085Z,57.50
2019-05-17T18:21:39.922Z,57.19
2019-05-17T18:24:10.465Z,54.75
2019-05-17T18:26:37.933Z,56.57
2019-05-17T18:29:07.974Z,55.20
2019-05-17T18:31:34.866Z,55.47
2019-05-17T18:34:02.403Z,55.62
2019-05-17T18:36:29.856Z,55.82
2019-05-17T18:38:58.134Z,53.95
2019-05-17T18:41:27.976Z,50.86
2019-05-17T18:43:55.420Z,53.31
2019-05-17T18:46:24.598Z,51.55
2019-05-17T18:48:51.961Z,52.94
2019-05-17T18:51:21.702Z,57.98
2019-05-17T18:53:49.096Z,58.02
2019-05-17T18:56:17.717Z,59.43
2019-05-17T18:58:45.373Z,59.71
2019-05-17T19:01:13.433Z,60.04
2019-05-17T19:03:41.880Z,56.77
2019-05-17T19:06:10.996Z,56.66
2019-05-17T19:08:38.894Z,59.00
2019-05-17T19:11:08.563Z,57.11
2019-05-17T19:13:37.159Z,58.42
2019-05-17T19:16:07.031Z,56.39
2019-05-17T19:18:35.847Z,59.62
2019-05-17T19:21:04.148Z,60.07
2019-05-17T19:23:32.911Z,56.85
2019-05-17T19:26:00.789Z,56.21
2019-05-17T19:28:29.551Z,56.94
2019-05-17T19:31:15.082Z,59.92
2019-05-17T19:33:44.832Z,60.36
2019-05-17T19:36:12.256Z,58.89
2019-05-17T19:38:39.711Z,58.08
2019-05-17T19:41:08.695Z,58.38
2019-05-17T19:43:36.639Z,59.34
2019-05-17T19:46:04.386Z,59.31
2019-05-17T19:48:32.930Z,61.68
2019-05-17T19:51:01.011Z,58.89
2019-05-17T19:53:29.741Z,58.31
2019-05-17T19:55:58.336Z,58.83
2019-05-17T19:58:27.920Z,60.17
2019-05-17T20:00:59.856Z,61.07
2019-05-17T20:03:27.449Z,61.90
2019-05-17T20:06:01.176Z,61.53
2019-05-17T20:08:29.086Z,59.89
2019-05-17T20:10:59.070Z,59.51
2019-05-17T20:13:28.212Z,60.12
2019-05-17T20:15:55.806Z,59.67
2019-05-17T20:18:23.431Z,59.89
2019-05-17T20:20:50.862Z,60.59
2019-05-17T20:23:18.266Z,60.41
2019-05-17T20:25:47.184Z,63.08
2019-05-17T20:28:14.578Z,57.97
2019-05-17T20:30:41.979Z,59.24
2019-05-17T20:33:09.454Z,59.82
2019-05-17T20:35:37.348Z,60.84
2019-05-17T20:38:04.829Z,60.65
2019-05-17T20:40:32.277Z,61.20
2019-05-17T20:43:00.127Z,60.53
2019-05-17T20:45:33.378Z,60.95
2019-05-17T20:48:07.659Z,61.32
2019-05-17T20:50:35.023Z,61.49
2019-05-17T20:53:16.529Z,61.23
2019-05-17T20:55:38.997Z,59.45
2019-05-17T20:58:06.568Z,59.23
2019-05-17T21:00:33.931Z,61.78
2019-05-17T21:03:01.319Z,59.95
2019-05-17T21:05:29.039Z,60.36
2019-05-17T21:07:56.406Z,61.37
2019-05-17T21:10:23.748Z,65.17
2019-05-17T21:12:51.131Z,64.43
2019-05-17T21:15:18.448Z,64.14
2019-05-17T21:17:45.765Z,63.42
2019-05-17T21:20:13.985Z,61.83
2019-05-17T21:22:41.470Z,64.45
2019-05-17T21:25:08.774Z,65.15
2019-05-17T21:27:36.159Z,64.27
2019-05-17T21:30:03.925Z,63.29
2019-05-17T21:32:31.262Z,67.56
2019-05-17T21:34:58.622Z,66.97
2019-05-17T21:37:25.953Z,65.16
2019-05-17T21:39:53.271Z,64.17
2019-05-17T21:42:20.626Z,64.74
2019-05-17T21:44:47.945Z,65.33
2019-05-17T21:47:15.306Z,64.73
2019-05-17T21:49:42.641Z,63.47
2019-05-17T21:52:09.965Z,62.83
2019-05-17T21:54:37.280Z,61.85
2019-05-17T21:57:04.697Z,64.39
2019-05-17T21:59:32.006Z,62.21
2019-05-17T22:01:59.526Z,61.92
2019-05-17T22:04:27.197Z,62.65
2019-05-17T22:06:54.674Z,62.77
2019-05-17T22:09:21.934Z,63.18
2019-05-17T22:11:51.252Z,65.42
2019-05-17T22:14:18.547Z,65.97
2019-05-17T22:16:45.883Z,66.71
2019-05-17T22:19:13.273Z,66.34
2019-05-17T22:21:40.580Z,66.51
2019-05-17T22:24:07.886Z,66.35
2019-05-17T22:26:35.255Z,65.95
2019-05-17T22:29:02.646Z,64.06
2019-05-17T22:31:29.946Z,65.10
2019-05-17T22:33:57.284Z,66.13
2019-05-17T22:36:24.665Z,68.49
2019-05-17T22:38:51.995Z,66.28
2019-05-17T22:41:19.389Z,65.51
2019-05-17T22:43:46.705Z,65.99
2019-05-17T22:46:14.025Z,65.49
2019-05-17T22:48:41.373Z,65.52
2019-05-17T22:51:08.660Z,66.25
2019-05-17T22:53:36.004Z,66.60
2019-05-17T22:56:03.393Z,67.21
2019-05-17T22:58:30.732Z,66.47
2019-05-17T23:00:58.081Z,64.88
2019-05-17T23:03:25.442Z,65.40
2019-05-17T23:05:52.784Z,66.83
2019-05-17T23:08:20.114Z,66.83
2019-05-17T23:10:47.466Z,68.54
2019-05-17T23:13:14.795Z,68.34
2019-05-17T23:16:01.434Z,69.14
2019-05-17T23:18:32.742Z,69.46
2019-05-17T23:21:00.185Z,68.04
2019-05-17T23:23:27.566Z,68.29
2019-05-17T23:25:54.867Z,67.69
2019-05-17T23:28:22.290Z,65.70
2019-05-17T23:30:49.635Z,66.89
2019-05-17T23:33:16.959Z,67.13
2019-05-17T23:35:44.240Z,67.66
2019-05-17T23:38:11.665Z,67.19
2019-05-17T23:40:38.997Z,68.18
2019-05-17T23:43:06.300Z,68.64
2019-05-17T23:45:33.659Z,69.62
2019-05-17T23:48:00.986Z,68.87
2019-05-17T23:50:28.288Z,67.55
2019-05-17T23:52:55.743Z,66.89
2019-05-17T23:55:23.067Z,67.11
2019-05-17T23:57:50.407Z,68.97
